createdAt,value
2019-04-22T00:02:02.340Z,7.87
2019-04-22T00:04:45.250Z,8.63
2019-04-22T00:07:28.926Z,8.00
2019-04-22T00:10:12.045Z,8.77
2019-04-22T00:12:47.329Z,8.57
2019-04-22T00:15:15.497Z,7.03
2019-04-22T00:18:01.689Z,6.97
2019-04-22T00:20:35.455Z,6.83
2019-04-22T00:23:03.662Z,7.67
2019-04-22T00:25:48.377Z,7.83
2019-04-22T00:30:56.254Z,8.33
2019-04-22T00:33:29.099Z,8.20
2019-04-22T00:36:06.272Z,9.50
2019-04-22T00:38:44.362Z,8.27
2019-04-22T00:41:21.460Z,8.60
2019-04-22T00:43:59.657Z,8.50
2019-04-22T00:46:31.828Z,8.80
2019-04-22T00:49:46.426Z,8.53
2019-04-22T00:51:44.875Z,7.90
2019-04-22T00:54:17.702Z,8.23
2019-04-22T00:56:48.239Z,8.27
2019-04-22T00:59:25.140Z,8.50
2019-04-22T01:02:03.611Z,8.37
2019-04-22T01:07:13.302Z,8.73
2019-04-22T01:09:46.439Z,7.50
2019-04-22T01:12:24.742Z,8.23
2019-04-22T01:14:59.229Z,7.67
2019-04-22T01:17:35.826Z,7.20
2019-04-22T01:20:24.481Z,7.37
2019-04-22T01:22:38.119Z,7.30
2019-04-22T01:25:21.745Z,7.33
2019-04-22T01:27:50.197Z,6.53
2019-04-22T01:30:20.666Z,7.70
2019-04-22T01:32:48.575Z,7.00
2019-04-22T01:35:35.133Z,6.57
2019-04-22T01:38:13.407Z,7.00
2019-04-22T01:40:59.945Z,6.50
2019-04-22T01:43:34.444Z,6.20
2019-04-22T01:46:08.504Z,6.00
2019-04-22T01:48:39.368Z,5.67
2019-04-22T01:51:22.324Z,7.10
2019-04-22T01:53:58.007Z,6.27
2019-04-22T01:56:30.321Z,6.07
2019-04-22T01:58:54.643Z,6.33
2019-04-22T02:01:43.909Z,6.00
2019-04-22T02:04:17.777Z,6.37
2019-04-22T02:06:53.763Z,6.60
2019-04-22T02:09:31.673Z,6.40
2019-04-22T02:12:00.580Z,6.60
2019-04-22T02:14:39.528Z,6.23
2019-04-22T02:19:53.079Z,5.90
2019-04-22T02:22:38.511Z,5.43
2019-04-22T02:25:06.753Z,7.70
2019-04-22T02:28:00.776Z,7.60
2019-04-22T02:30:06.005Z,6.90
2019-04-22T02:33:01.932Z,6.87
2019-04-22T02:35:40.716Z,7.37
2019-04-22T02:38:07.766Z,7.53
2019-04-22T02:40:46.064Z,7.70
2019-04-22T02:43:13.935Z,7.80
2019-04-22T02:46:07.746Z,7.97
2019-04-22T02:48:39.755Z,7.33
2019-04-22T02:54:02.576Z,7.10
2019-04-22T02:58:56.631Z,6.30
2019-04-22T03:01:24.824Z,7.20
2019-04-22T03:04:01.565Z,6.60
2019-04-22T03:09:12.561Z,6.73
2019-04-22T03:19:34.066Z,6.40
2019-04-22T03:22:00.585Z,6.10
2019-04-22T03:25:06.142Z,6.07
2019-04-22T03:37:56.372Z,5.27
2019-04-22T03:45:45.663Z,4.93
2019-04-22T03:50:49.033Z,4.80
2019-04-22T03:53:35.081Z,5.50
2019-04-22T03:56:29.066Z,5.77
2019-04-22T03:58:37.408Z,6.57
2019-04-22T04:01:18.432Z,5.60
2019-04-22T04:04:01.011Z,6.17
2019-04-22T04:06:32.375Z,6.57
2019-04-22T04:08:59.218Z,6.43
2019-04-22T04:11:55.819Z,6.80
2019-04-22T04:14:22.290Z,6.07
2019-04-22T04:17:26.230Z,6.43
2019-04-22T04:19:36.579Z,5.80
2019-04-22T04:22:04.662Z,5.30
2019-04-22T04:24:46.298Z,5.60
2019-04-22T04:27:18.661Z,5.57
2019-04-22T04:29:54.481Z,6.17
2019-04-22T04:32:34.306Z,5.50
2019-04-22T04:35:18.937Z,6.77
2019-04-22T04:42:54.241Z,6.20
2019-04-22T04:58:36.711Z,5.67
2019-04-22T05:00:57.177Z,6.00
2019-04-22T05:03:34.593Z,6.00
2019-04-22T05:06:01.267Z,5.70
2019-04-22T05:08:51.845Z,5.90
2019-04-22T05:13:50.112Z,5.80
2019-04-22T05:19:02.523Z,4.67
2019-04-22T05:21:21.766Z,5.53
2019-04-22T05:26:39.697Z,5.90
2019-04-22T05:29:12.832Z,6.20
2019-04-22T05:31:52.229Z,6.80
2019-04-22T05:34:26.481Z,7.37
2019-04-22T05:36:55.385Z,7.00
2019-04-22T05:39:28.547Z,7.10
2019-04-22T05:42:11.484Z,6.60
2019-04-22T05:44:47.685Z,6.77
2019-04-22T05:47:19.467Z,7.13
2019-04-22T05:49:48.342Z,7.00
2019-04-22T05:52:27.771Z,7.50
2019-04-22T05:55:08.264Z,7.50
2019-04-22T05:57:38.860Z,6.93
2019-04-22T06:00:25.791Z,7.47
2019-04-22T06:02:53.073Z,7.27
2019-04-22T06:05:24.999Z,6.83
2019-04-22T06:08:02.111Z,6.07
2019-04-22T06:10:45.871Z,6.05
2019-04-22T06:13:10.004Z,5.40
2019-04-22T06:15:52.867Z,5.15
2019-04-22T06:18:33.361Z,5.00
2019-04-22T06:21:11.555Z,5.17
2019-04-22T06:23:46.764Z,5.30
2019-04-22T06:28:56.867Z,5.58
2019-04-22T06:31:39.645Z,5.35
2019-04-22T06:34:11.928Z,5.40
2019-04-22T06:36:45.143Z,5.03
2019-04-22T06:39:24.233Z,4.70
2019-04-22T06:41:53.461Z,4.75
2019-04-22T06:44:32.315Z,4.55
2019-04-22T06:47:05.291Z,5.42
2019-04-22T06:49:41.988Z,5.08
2019-04-22T06:52:17.731Z,5.50
2019-04-22T06:54:54.979Z,5.60
2019-04-22T06:57:33.316Z,6.03
2019-04-22T07:00:07.816Z,5.92
2019-04-22T07:02:56.151Z,5.80
2019-04-22T07:05:17.943Z,6.12
2019-04-22T07:07:53.532Z,5.72
2019-04-22T07:13:01.474Z,5.75
2019-04-22T07:18:18.164Z,5.85
2019-04-22T07:20:51.111Z,5.70
2019-04-22T07:23:30.317Z,6.28
2019-04-22T07:26:05.988Z,5.90
2019-04-22T07:28:37.746Z,6.58
2019-04-22T07:31:16.019Z,5.95
2019-04-22T07:33:51.183Z,5.90
2019-04-22T07:39:08.627Z,5.92
2019-04-22T07:41:44.613Z,5.62
2019-04-22T07:44:19.144Z,6.12
2019-04-22T07:46:56.525Z,6.33
2019-04-22T07:49:35.257Z,5.90
2019-04-22T07:52:03.619Z,6.50
2019-04-22T07:54:41.651Z,6.60
2019-04-22T07:57:20.208Z,6.78
2019-04-22T08:00:01.004Z,5.53
2019-04-22T08:02:32.804Z,6.37
2019-04-22T08:07:35.963Z,6.30
2019-04-22T08:10:23.640Z,7.35
2019-04-22T08:12:55.422Z,17.45
2019-04-22T08:15:27.323Z,8.23
2019-04-22T08:18:17.476Z,7.40
2019-04-22T08:20:40.992Z,6.72
2019-04-22T08:23:22.659Z,6.87
2019-04-22T08:25:47.609Z,6.17
2019-04-22T08:28:30.562Z,6.30
2019-04-22T08:31:10.552Z,7.08
2019-04-22T08:33:39.912Z,6.75
2019-04-22T08:36:21.361Z,7.33
2019-04-22T08:38:55.928Z,6.75
2019-04-22T08:41:38.346Z,6.15
2019-04-22T08:44:18.610Z,7.00
2019-04-22T08:46:40.970Z,6.58
2019-04-22T08:49:14.132Z,6.35
2019-04-22T08:51:49.533Z,5.40
2019-04-22T08:54:31.164Z,5.28
2019-04-22T08:57:01.842Z,6.65
2019-04-22T08:59:36.947Z,5.60
2019-04-22T09:02:24.333Z,5.42
2019-04-22T09:04:49.411Z,5.62
2019-04-22T09:10:02.075Z,5.42
2019-04-22T09:12:51.805Z,6.47
2019-04-22T09:15:20.309Z,6.35
2019-04-22T09:18:00.428Z,6.17
2019-04-22T09:20:26.620Z,6.17
2019-04-22T09:23:07.674Z,5.22
2019-04-22T09:25:39.219Z,5.17
2019-04-22T09:28:15.118Z,5.72
2019-04-22T09:30:56.881Z,6.78
2019-04-22T09:38:43.738Z,7.00
2019-04-22T09:41:25.009Z,6.90
2019-04-22T09:46:36.171Z,5.87
2019-04-22T09:49:11.989Z,4.92
2019-04-22T09:51:44.971Z,5.22
2019-04-22T09:54:22.046Z,5.60
2019-04-22T09:56:56.844Z,6.22
2019-04-22T09:59:36.884Z,6.33
2019-04-22T10:02:19.846Z,5.08
2019-04-22T10:04:49.444Z,5.40
2019-04-22T10:07:23.811Z,4.70
2019-04-22T10:15:22.956Z,4.25
2019-04-22T10:17:47.824Z,3.47
2019-04-22T10:20:22.380Z,4.05
2019-04-22T10:22:53.223Z,4.53
2019-04-22T10:25:29.615Z,4.00
2019-04-22T10:28:14.706Z,4.47
2019-04-22T10:30:50.069Z,4.15
2019-04-22T10:33:20.828Z,4.12
2019-04-22T10:35:32.552Z,4.12
2019-04-22T10:38:08.131Z,3.35
2019-04-22T10:40:42.794Z,4.03
2019-04-22T10:43:17.089Z,2.87
2019-04-22T10:45:52.295Z,2.83
2019-04-22T10:48:26.464Z,3.52
2019-04-22T10:51:01.039Z,2.55
2019-04-22T10:53:35.596Z,2.83
2019-04-22T10:56:09.896Z,3.15
2019-04-22T10:58:44.728Z,3.33
2019-04-22T11:01:18.979Z,2.58
2019-04-22T11:03:53.208Z,2.42
2019-04-22T11:06:27.589Z,2.00
2019-04-22T11:09:04.943Z,1.82
2019-04-22T11:11:46.641Z,2.40
2019-04-22T11:14:14.680Z,2.27
2019-04-22T11:16:49.738Z,2.45
2019-04-22T11:19:23.951Z,2.05
2019-04-22T11:22:07.767Z,2.60
2019-04-22T11:24:34.697Z,1.80
2019-04-22T11:27:09.030Z,1.52
2019-04-22T11:29:43.718Z,1.72
2019-04-22T11:32:18.326Z,1.72
2019-04-22T11:34:53.601Z,1.55
2019-04-22T11:37:28.329Z,1.62
2019-04-22T11:40:15.114Z,1.87
2019-04-22T11:42:38.714Z,1.65
2019-04-22T11:45:13.229Z,1.60
2019-04-22T11:47:47.586Z,1.70
2019-04-22T11:50:24.225Z,2.00
2019-04-22T11:52:58.664Z,2.00
2019-04-22T11:55:32.978Z,2.22
2019-04-22T11:58:08.549Z,2.08
2019-04-22T12:00:43.263Z,2.77
2019-04-22T12:03:18.798Z,1.50
2019-04-22T12:05:53.189Z,2.52
2019-04-22T12:08:27.329Z,1.95
2019-04-22T12:11:04.347Z,1.82
2019-04-22T12:13:37.903Z,1.70
2019-04-22T12:16:13.513Z,2.12
2019-04-22T12:18:49.311Z,1.62
2019-04-22T12:21:23.556Z,1.35
2019-04-22T12:23:59.029Z,1.60
2019-04-22T12:26:34.547Z,1.00
2019-04-22T12:29:09.226Z,1.75
2019-04-22T12:31:43.339Z,1.35
2019-04-22T12:34:17.577Z,1.50
2019-04-22T12:36:51.750Z,1.40
2019-04-22T12:39:27.366Z,1.40
2019-04-22T12:42:02.674Z,1.60
2019-04-22T12:44:39.092Z,1.50
2019-04-22T12:47:14.947Z,0.90
2019-04-22T12:49:57.203Z,1.20
2019-04-22T12:52:34.221Z,1.05
2019-04-22T12:55:01.622Z,1.00
2019-04-22T12:57:36.828Z,1.30
2019-04-22T13:00:13.464Z,1.27
2019-04-22T13:02:49.064Z,1.20
2019-04-22T13:05:24.940Z,1.40
2019-04-22T13:08:00.074Z,1.20
2019-04-22T13:10:45.598Z,1.50
2019-04-22T13:13:11.293Z,1.85
2019-04-22T13:15:46.776Z,1.92
2019-04-22T13:18:29.414Z,1.95
2019-04-22T13:20:56.855Z,1.42
2019-04-22T13:23:31.787Z,1.30
2019-04-22T13:26:07.444Z,1.80
2019-04-22T13:28:43.040Z,1.85
2019-04-22T13:31:20.469Z,1.62
2019-04-22T13:33:57.246Z,1.62
2019-04-22T13:36:30.267Z,1.45
2019-04-22T13:39:08.936Z,1.62
2019-04-22T13:41:49.820Z,1.70
2019-04-22T13:44:19.137Z,1.47
2019-04-22T13:47:08.576Z,1.32
2019-04-22T13:50:13.623Z,1.52
2019-04-22T13:55:11.899Z,1.60
2019-04-22T13:57:32.804Z,1.52
2019-04-22T13:59:56.436Z,2.10
2019-04-22T14:02:34.646Z,1.60
2019-04-22T14:05:10.609Z,1.87
2019-04-22T14:07:44.738Z,2.42
2019-04-22T14:10:20.595Z,2.52
2019-04-22T14:12:55.100Z,2.87
2019-04-22T14:15:29.813Z,2.98
2019-04-22T14:18:07.177Z,3.22
2019-04-22T14:20:42.810Z,2.80
2019-04-22T14:23:17.364Z,2.77
2019-04-22T14:25:52.821Z,3.30
2019-04-22T14:28:28.884Z,3.00
2019-04-22T14:31:04.326Z,2.92
2019-04-22T14:33:38.569Z,3.10
2019-04-22T14:36:12.699Z,3.33
2019-04-22T14:38:47.999Z,2.85
2019-04-22T14:41:42.337Z,3.58
2019-04-22T14:44:56.578Z,2.80
2019-04-22T14:47:02.142Z,3.05
2019-04-22T14:49:29.828Z,2.37
2019-04-22T14:52:13.043Z,3.15
2019-04-22T14:54:36.274Z,2.90
2019-04-22T14:56:58.898Z,2.90
2019-04-22T14:59:33.122Z,2.70
2019-04-22T15:02:07.658Z,2.67
2019-04-22T15:04:43.009Z,3.15
2019-04-22T15:07:17.194Z,2.90
2019-04-22T15:09:52.283Z,2.55
2019-04-22T15:12:35.802Z,3.08
2019-04-22T15:15:05.452Z,2.58
2019-04-22T15:17:42.863Z,2.77
2019-04-22T15:20:37.519Z,2.62
2019-04-22T15:23:12.690Z,3.10
2019-04-22T15:25:48.375Z,2.67
2019-04-22T15:28:23.732Z,3.22
2019-04-22T15:30:59.361Z,2.77
2019-04-22T15:33:35.135Z,2.67
2019-04-22T15:36:09.999Z,2.58
2019-04-22T15:38:44.978Z,3.22
2019-04-22T15:41:20.633Z,3.00
2019-04-22T15:43:54.855Z,2.52
2019-04-22T15:46:29.837Z,3.00
2019-04-22T15:49:04.522Z,3.58
2019-04-22T15:51:38.797Z,2.55
2019-04-22T15:54:13.889Z,3.00
2019-04-22T15:56:48.889Z,2.72
2019-04-22T15:59:43.433Z,2.70
2019-04-22T16:02:00.716Z,3.05
2019-04-22T16:04:35.098Z,2.87
2019-04-22T16:07:10.742Z,2.70
2019-04-22T16:09:45.736Z,2.77
2019-04-22T16:12:27.633Z,3.40
2019-04-22T16:14:58.735Z,3.10
2019-04-22T16:17:32.691Z,3.15
2019-04-22T16:20:07.332Z,2.95
2019-04-22T16:22:59.336Z,2.52
2019-04-22T16:25:45.261Z,3.10
2019-04-22T16:28:19.660Z,3.10
2019-04-22T16:30:55.321Z,3.05
2019-04-22T16:33:31.205Z,2.92
2019-04-22T16:36:07.103Z,2.80
2019-04-22T16:38:42.756Z,2.85
2019-04-22T16:41:17.177Z,3.00
2019-04-22T16:43:51.280Z,3.10
2019-04-22T16:46:25.642Z,2.67
2019-04-22T16:48:59.744Z,2.60
2019-04-22T16:51:34.334Z,2.87
2019-04-22T16:54:09.104Z,2.55
2019-04-22T16:56:43.900Z,2.70
2019-04-22T16:59:18.996Z,3.50
2019-04-22T17:02:06.741Z,2.70
2019-04-22T17:04:51.620Z,2.98
2019-04-22T17:07:26.466Z,2.98
2019-04-22T17:10:01.929Z,2.35
2019-04-22T17:12:45.886Z,3.15
2019-04-22T17:15:14.310Z,2.98
2019-04-22T17:17:49.386Z,3.55
2019-04-22T17:20:25.046Z,2.83
2019-04-22T17:23:00.017Z,3.12
2019-04-22T17:25:34.338Z,3.02
2019-04-22T17:28:10.258Z,3.55
2019-04-22T17:30:45.712Z,2.90
2019-04-22T17:33:20.987Z,3.83
2019-04-22T17:35:55.388Z,3.62
2019-04-22T17:38:40.794Z,3.58
2019-04-22T17:41:19.038Z,4.05
2019-04-22T17:44:06.568Z,3.50
2019-04-22T17:46:36.054Z,3.40
2019-04-22T17:49:29.689Z,3.50
2019-04-22T17:52:21.096Z,4.05
2019-04-22T17:54:51.581Z,3.20
2019-04-22T17:57:31.687Z,4.25
2019-04-22T18:00:00.017Z,3.95
2019-04-22T18:02:35.824Z,4.45
2019-04-22T18:05:03.377Z,4.25
2019-04-22T18:08:08.420Z,3.90
2019-04-22T18:10:32.421Z,3.90
2019-04-22T18:13:15.732Z,4.37
2019-04-22T18:15:45.052Z,4.43
2019-04-22T18:18:18.683Z,4.90
2019-04-22T18:20:47.510Z,4.12
2019-04-22T18:23:12.751Z,4.30
2019-04-22T18:25:59.099Z,4.60
2019-04-22T18:28:42.368Z,4.30
2019-04-22T18:31:06.669Z,4.23
2019-04-22T18:33:46.040Z,4.58
2019-04-22T18:36:23.858Z,5.17
2019-04-22T18:39:08.000Z,4.40
2019-04-22T18:41:34.201Z,5.00
2019-04-22T18:44:09.618Z,4.50
2019-04-22T18:46:51.125Z,4.50
2019-04-22T18:49:25.083Z,4.33
2019-04-22T18:52:10.431Z,4.50
2019-04-22T18:54:48.408Z,4.80
2019-04-22T18:57:16.056Z,4.80
2019-04-22T18:59:42.614Z,4.53
2019-04-22T19:02:16.274Z,4.73
2019-04-22T19:04:59.931Z,4.43
2019-04-22T19:07:49.291Z,5.07
2019-04-22T19:10:32.484Z,5.10
2019-04-22T19:13:31.330Z,5.17
2019-04-22T19:15:38.347Z,4.57
2019-04-22T19:18:18.187Z,5.20
2019-04-22T19:20:59.443Z,4.67
2019-04-22T19:23:28.455Z,4.97
2019-04-22T19:26:02.259Z,5.70
2019-04-22T19:28:42.183Z,5.23
2019-04-22T19:31:19.407Z,5.20
2019-04-22T19:33:56.304Z,5.20
2019-04-22T19:36:25.768Z,5.33
2019-04-22T19:38:59.227Z,5.20
2019-04-22T19:41:46.770Z,5.73
2019-04-22T19:44:14.539Z,5.03
2019-04-22T19:47:10.746Z,5.10
2019-04-22T19:49:33.050Z,4.87
2019-04-22T19:54:37.556Z,5.20
2019-04-22T19:57:08.521Z,4.80
2019-04-22T19:59:45.482Z,5.00
2019-04-22T20:02:25.475Z,3.57
2019-04-22T20:05:12.526Z,4.40
2019-04-22T20:07:48.710Z,4.33
2019-04-22T20:10:22.445Z,4.93
2019-04-22T20:12:52.910Z,4.23
2019-04-22T20:15:26.927Z,4.10
2019-04-22T20:20:49.323Z,5.23
2019-04-22T20:23:15.975Z,4.10
2019-04-22T20:25:48.077Z,4.77
2019-04-22T20:28:33.063Z,3.70
2019-04-22T20:31:04.017Z,4.80
2019-04-22T20:33:44.599Z,4.30
2019-04-22T20:36:26.459Z,5.00
2019-04-22T20:38:49.537Z,4.97
2019-04-22T20:41:22.872Z,4.00
2019-04-22T20:44:04.735Z,4.83
2019-04-22T20:46:37.680Z,4.63
2019-04-22T20:49:12.024Z,4.23
2019-04-22T20:51:58.866Z,5.30
2019-04-22T20:54:24.357Z,4.87
2019-04-22T20:56:59.683Z,5.03
2019-04-22T20:59:33.342Z,4.30
2019-04-22T21:02:07.913Z,5.20
2019-04-22T21:04:38.295Z,4.77
2019-04-22T21:07:15.175Z,4.50
2019-04-22T21:09:56.916Z,4.73
2019-04-22T21:12:22.379Z,4.90
2019-04-22T21:15:12.574Z,4.43
2019-04-22T21:17:45.920Z,5.40
2019-04-22T21:20:26.139Z,5.00
2019-04-22T21:22:58.804Z,4.47
2019-04-22T21:25:24.255Z,5.00
2019-04-22T21:28:09.609Z,5.10
2019-04-22T21:30:43.286Z,5.03
2019-04-22T21:33:16.213Z,4.73
2019-04-22T21:36:08.419Z,5.03
2019-04-22T21:38:34.501Z,4.80
2019-04-22T21:41:08.399Z,4.07
2019-04-22T21:43:46.713Z,4.23
2019-04-22T21:46:16.254Z,4.80
2019-04-22T21:48:57.365Z,3.83
2019-04-22T21:51:31.712Z,4.17
2019-04-22T21:54:09.588Z,3.63
2019-04-22T21:56:56.634Z,4.40
2019-04-22T21:59:17.315Z,4.37
2019-04-22T22:02:00.390Z,4.50
2019-04-22T22:04:25.140Z,4.90
2019-04-22T22:06:57.218Z,5.00
2019-04-22T22:09:44.009Z,4.33
2019-04-22T22:12:10.403Z,4.67
2019-04-22T22:14:50.106Z,4.33
2019-04-22T22:17:22.583Z,4.50
2019-04-22T22:19:57.902Z,5.10
2019-04-22T22:22:50.360Z,4.40
2019-04-22T22:25:16.080Z,4.50
2019-04-22T22:27:44.391Z,4.60
2019-04-22T22:33:01.589Z,4.50
2019-04-22T22:35:35.949Z,4.60
2019-04-22T22:38:09.396Z,5.40
2019-04-22T22:40:28.076Z,4.73
2019-04-22T22:42:59.933Z,4.70
2019-04-22T22:45:46.332Z,4.67
2019-04-22T22:48:36.475Z,4.10
2019-04-22T22:51:05.305Z,4.00
2019-04-22T22:53:44.870Z,4.47
2019-04-22T22:56:19.028Z,4.60
2019-04-22T22:58:52.697Z,4.63
2019-04-22T23:01:31.884Z,4.37
2019-04-22T23:04:03.986Z,4.80
2019-04-22T23:06:40.671Z,4.40
2019-04-22T23:09:13.187Z,5.40
2019-04-22T23:14:28.053Z,4.27
2019-04-22T23:16:47.718Z,4.87
2019-04-22T23:19:13.720Z,3.90
2019-04-22T23:21:53.840Z,5.30
2019-04-22T23:24:48.179Z,5.10
2019-04-22T23:27:40.181Z,5.40
2019-04-22T23:30:05.363Z,5.67
2019-04-22T23:32:43.511Z,5.17
2019-04-22T23:35:29.336Z,4.73
2019-04-22T23:38:02.013Z,5.47
2019-04-22T23:40:38.502Z,4.13
2019-04-22T23:43:24.278Z,5.57
2019-04-22T23:45:50.375Z,5.57
2019-04-22T23:48:22.283Z,4.90
2019-04-22T23:51:07.547Z,5.80
2019-04-22T23:53:57.494Z,5.97
2019-04-22T23:56:16.927Z,5.83
2019-04-22T23:59:09.142Z,5.10
